sensor_id;sensor_type;location;lat;lon;timestamp;pressure;altitude;pressure_sealevel;temperature;humidity
41312;BME280;27061;41.648;24.568;2023-09-30T00:00:32;86386.81;;;13.68;66.30
41312;BME280;27061;41.648;24.568;2023-09-30T00:03:00;86369.63;;;13.55;66.72
41312;BME280;27061;41.648;24.568;2023-09-30T00:05:28;86335.91;;;13.33;66.78
41312;BME280;27061;41.648;24.568;2023-09-30T00:07:55;86323.31;;;13.38;64.32
41312;BME280;27061;41.648;24.568;2023-09-30T00:10:22;86393.53;;;13.85;64.25
41312;BME280;27061;41.648;24.568;2023-09-30T00:12:49;86330.16;;;13.45;63.61
41312;BME280;27061;41.648;24.568;2023-09-30T00:15:17;86351.94;;;13.75;61.45
41312;BME280;27061;41.648;24.568;2023-09-30T00:17:44;86350.31;;;13.88;61.12
41312;BME280;27061;41.648;24.568;2023-09-30T00:20:12;86338.56;;;13.84;61.01
41312;BME280;27061;41.648;24.568;2023-09-30T00:22:41;86350.13;;;14.01;60.54
41312;BME280;27061;41.648;24.568;2023-09-30T00:25:09;86368.16;;;14.04;60.96
41312;BME280;27061;41.648;24.568;2023-09-30T00:27:36;86343.13;;;14.04;59.97
41312;BME280;27061;41.648;24.568;2023-09-30T00:30:04;86378.94;;;14.26;60.05
41312;BME280;27061;41.648;24.568;2023-09-30T00:32:33;86373.91;;;14.35;60.41
41312;BME280;27061;41.648;24.568;2023-09-30T00:35:02;86382.91;;;14.37;60.23
41312;BME280;27061;41.648;24.568;2023-09-30T00:37:30;86336.16;;;14.05;59.70
41312;BME280;27061;41.648;24.568;2023-09-30T00:39:57;86368.28;;;14.39;59.68
41312;BME280;27061;41.648;24.568;2023-09-30T00:42:24;86346.59;;;14.04;59.65
41312;BME280;27061;41.648;24.568;2023-09-30T00:44:51;86282.28;;;13.79;58.95
41312;BME280;27061;41.648;24.568;2023-09-30T00:47:18;86292.72;;;13.79;59.47
41312;BME280;27061;41.648;24.568;2023-09-30T00:49:49;86331.84;;;14.12;59.31
41312;BME280;27061;41.648;24.568;2023-09-30T00:52:18;86316.81;;;13.97;59.56
41312;BME280;27061;41.648;24.568;2023-09-30T00:54:46;86366.19;;;14.39;59.46
41312;BME280;27061;41.648;24.568;2023-09-30T00:57:14;86373.72;;;14.47;59.24
41312;BME280;27061;41.648;24.568;2023-09-30T00:59:42;86348.78;;;14.41;59.29
41312;BME280;27061;41.648;24.568;2023-09-30T01:02:09;86368.78;;;14.51;59.05
41312;BME280;27061;41.648;24.568;2023-09-30T01:04:37;86326.06;;;14.24;59.26
41312;BME280;27061;41.648;24.568;2023-09-30T01:07:05;86353.59;;;14.42;59.47
41312;BME280;27061;41.648;24.568;2023-09-30T01:09:32;86360.28;;;14.57;58.85
41312;BME280;27061;41.648;24.568;2023-09-30T01:12:00;86360.47;;;14.47;59.42
41312;BME280;27061;41.648;24.568;2023-09-30T01:14:32;86348.19;;;14.32;59.71
41312;BME280;27061;41.648;24.568;2023-09-30T01:17:01;86356.28;;;14.48;59.12
41312;BME280;27061;41.648;24.568;2023-09-30T01:19:29;86353.75;;;14.32;59.64
41312;BME280;27061;41.648;24.568;2023-09-30T01:21:57;86318.03;;;14.06;60.18
41312;BME280;27061;41.648;24.568;2023-09-30T01:24:30;86333.63;;;14.29;59.28
41312;BME280;27061;41.648;24.568;2023-09-30T01:26:58;86324.69;;;14.23;58.85
41312;BME280;27061;41.648;24.568;2023-09-30T01:29:25;86335.75;;;14.27;59.24
41312;BME280;27061;41.648;24.568;2023-09-30T01:31:54;86324.81;;;14.15;60.00
41312;BME280;27061;41.648;24.568;2023-09-30T01:34:21;86353.66;;;14.38;59.26
41312;BME280;27061;41.648;24.568;2023-09-30T01:36:49;86352.16;;;14.45;59.24
41312;BME280;27061;41.648;24.568;2023-09-30T01:39:16;86359.22;;;14.40;59.62
41312;BME280;27061;41.648;24.568;2023-09-30T01:41:43;86352.16;;;14.45;59.63
41312;BME280;27061;41.648;24.568;2023-09-30T01:44:10;86323.28;;;14.24;58.59
41312;BME280;27061;41.648;24.568;2023-09-30T01:46:37;86356.38;;;14.42;59.27
41312;BME280;27061;41.648;24.568;2023-09-30T01:49:05;86322.06;;;14.13;59.66
41312;BME280;27061;41.648;24.568;2023-09-30T01:51:33;86315.97;;;14.04;59.84
41312;BME280;27061;41.648;24.568;2023-09-30T01:54:00;86347.78;;;14.15;60.43
41312;BME280;27061;41.648;24.568;2023-09-30T01:56:27;86315.47;;;13.91;60.76
41312;BME280;27061;41.648;24.568;2023-09-30T01:58:54;86343.44;;;14.24;60.97
41312;BME280;27061;41.648;24.568;2023-09-30T02:01:22;86351.81;;;14.24;60.54
41312;BME280;27061;41.648;24.568;2023-09-30T02:03:50;86333.16;;;14.17;60.46
41312;BME280;27061;41.648;24.568;2023-09-30T02:06:18;86294.31;;;13.68;61.14
41312;BME280;27061;41.648;24.568;2023-09-30T02:08:45;86324.44;;;13.98;60.65
41312;BME280;27061;41.648;24.568;2023-09-30T02:11:12;86348.63;;;14.08;61.00
41312;BME280;27061;41.648;24.568;2023-09-30T02:13:41;86344.34;;;14.13;60.93
41312;BME280;27061;41.648;24.568;2023-09-30T02:16:13;86307.78;;;13.94;59.81
41312;BME280;27061;41.648;24.568;2023-09-30T02:18:43;86341.34;;;14.25;60.11
41312;BME280;27061;41.648;24.568;2023-09-30T02:21:12;86338.59;;;14.23;59.89
41312;BME280;27061;41.648;24.568;2023-09-30T02:23:39;86305.59;;;14.01;60.01
41312;BME280;27061;41.648;24.568;2023-09-30T02:26:06;86353.22;;;14.23;60.31
41312;BME280;27061;41.648;24.568;2023-09-30T02:28:34;86345.38;;;14.34;60.42
41312;BME280;27061;41.648;24.568;2023-09-30T02:31:01;86323.56;;;14.08;60.80
41312;BME280;27061;41.648;24.568;2023-09-30T02:33:29;86340.13;;;14.16;60.83
41312;BME280;27061;41.648;24.568;2023-09-30T02:35:56;86331.50;;;13.91;61.42
41312;BME280;27061;41.648;24.568;2023-09-30T02:38:24;86339.84;;;13.91;61.86
41312;BME280;27061;41.648;24.568;2023-09-30T02:40:51;86347.34;;;14.01;61.92
41312;BME280;27061;41.648;24.568;2023-09-30T02:43:19;86317.72;;;13.83;61.85
41312;BME280;27061;41.648;24.568;2023-09-30T02:45:48;86331.97;;;14.04;61.13
41312;BME280;27061;41.648;24.568;2023-09-30T02:48:15;86344.25;;;14.19;60.58
41312;BME280;27061;41.648;24.568;2023-09-30T02:50:43;86309.75;;;14.02;60.18
41312;BME280;27061;41.648;24.568;2023-09-30T02:53:13;86334.56;;;14.16;60.00
41312;BME280;27061;41.648;24.568;2023-09-30T02:55:42;86301.59;;;13.89;60.13
41312;BME280;27061;41.648;24.568;2023-09-30T02:58:11;86306.56;;;13.85;60.36
41312;BME280;27061;41.648;24.568;2023-09-30T03:00:38;86333.34;;;14.05;60.79
41312;BME280;27061;41.648;24.568;2023-09-30T03:03:06;86332.69;;;14.02;61.01
41312;BME280;27061;41.648;24.568;2023-09-30T03:05:33;86317.72;;;13.83;61.17
41312;BME280;27061;41.648;24.568;2023-09-30T03:08:01;86338.34;;;13.98;61.47
41312;BME280;27061;41.648;24.568;2023-09-30T03:10:28;86334.78;;;14.02;61.48
41312;BME280;27061;41.648;24.568;2023-09-30T03:12:56;86334.66;;;14.10;60.73
41312;BME280;27061;41.648;24.568;2023-09-30T03:15:23;86290.72;;;13.75;60.14
41312;BME280;27061;41.648;24.568;2023-09-30T03:17:50;86341.03;;;14.04;60.60
41312;BME280;27061;41.648;24.568;2023-09-30T03:20:19;86330.53;;;14.07;60.32
41312;BME280;27061;41.648;24.568;2023-09-30T03:22:51;86336.13;;;14.07;60.48
41312;BME280;27061;41.648;24.568;2023-09-30T03:25:23;86278.56;;;13.54;60.83
41312;BME280;27061;41.648;24.568;2023-09-30T03:27:50;86257.91;;;13.41;60.67
41312;BME280;27061;41.648;24.568;2023-09-30T03:30:18;86330.19;;;13.86;60.79
41312;BME280;27061;41.648;24.568;2023-09-30T03:32:47;86273.22;;;13.40;61.06
41312;BME280;27061;41.648;24.568;2023-09-30T03:35:14;86339.28;;;13.84;61.18
41312;BME280;27061;41.648;24.568;2023-09-30T03:37:46;86324.88;;;13.70;61.46
41312;BME280;27061;41.648;24.568;2023-09-30T03:40:16;86347.13;;;13.72;61.99
41312;BME280;27061;41.648;24.568;2023-09-30T03:42:47;86337.44;;;13.67;62.23
41312;BME280;27061;41.648;24.568;2023-09-30T03:45:17;86340.44;;;13.54;62.28
41312;BME280;27061;41.648;24.568;2023-09-30T03:47:48;86341.06;;;13.57;62.49
41312;BME280;27061;41.648;24.568;2023-09-30T03:50:16;86305.56;;;13.14;62.81
41312;BME280;27061;41.648;24.568;2023-09-30T03:52:44;86298.72;;;13.05;62.87
41312;BME280;27061;41.648;24.568;2023-09-30T03:55:15;86341.28;;;13.45;63.07
41312;BME280;27061;41.648;24.568;2023-09-30T03:57:43;86344.09;;;13.43;62.86
41312;BME280;27061;41.648;24.568;2023-09-30T04:00:15;86331.66;;;13.38;62.87
41312;BME280;27061;41.648;24.568;2023-09-30T04:02:53;86339.41;;;13.31;63.01
41312;BME280;27061;41.648;24.568;2023-09-30T04:05:25;86337.28;;;13.34;63.03
41312;BME280;27061;41.648;24.568;2023-09-30T04:07:57;86329.97;;;13.08;63.83
41312;BME280;27061;41.648;24.568;2023-09-30T04:10:24;86323.59;;;13.17;63.39
41312;BME280;27061;41.648;24.568;2023-09-30T04:12:52;86344.31;;;13.27;63.46
41312;BME280;27061;41.648;24.568;2023-09-30T04:15:19;86335.34;;;13.22;63.15
41312;BME280;27061;41.648;24.568;2023-09-30T04:17:48;86295.53;;;12.84;63.12
41312;BME280;27061;41.648;24.568;2023-09-30T04:20:15;86340.22;;;13.22;62.89
41312;BME280;27061;41.648;24.568;2023-09-30T04:22:46;86272.88;;;12.66;63.16
41312;BME280;27061;41.648;24.568;2023-09-30T04:25:17;86190.38;;;12.05;62.93
41312;BME280;27061;41.648;24.568;2023-09-30T04:27:46;86279.16;;;12.62;62.80
41312;BME280;27061;41.648;24.568;2023-09-30T04:30:19;86353.59;;;13.09;63.14
41312;BME280;27061;41.648;24.568;2023-09-30T04:32:46;86346.91;;;12.88;62.97
41312;BME280;27061;41.648;24.568;2023-09-30T04:35:13;86266.22;;;12.44;63.40
41312;BME280;27061;41.648;24.568;2023-09-30T04:37:42;86350.91;;;13.01;63.93
41312;BME280;27061;41.648;24.568;2023-09-30T04:40:10;86351.63;;;12.99;63.95
41312;BME280;27061;41.648;24.568;2023-09-30T04:42:47;86356.47;;;13.01;64.10
41312;BME280;27061;41.648;24.568;2023-09-30T04:45:15;86354.47;;;12.93;64.74
41312;BME280;27061;41.648;24.568;2023-09-30T04:47:52;86339.28;;;12.86;64.52
41312;BME280;27061;41.648;24.568;2023-09-30T04:50:20;86326.94;;;12.73;64.70
41312;BME280;27061;41.648;24.568;2023-09-30T04:52:52;86346.25;;;12.83;64.96
41312;BME280;27061;41.648;24.568;2023-09-30T04:55:23;86361.31;;;13.02;64.70
41312;BME280;27061;41.648;24.568;2023-09-30T04:57:50;86349.53;;;13.00;64.54
41312;BME280;27061;41.648;24.568;2023-09-30T05:00:19;86340.09;;;12.78;65.30
41312;BME280;27061;41.648;24.568;2023-09-30T05:02:54;86362.81;;;12.93;65.37
41312;BME280;27061;41.648;24.568;2023-09-30T05:05:22;86347.59;;;12.88;65.29
41312;BME280;27061;41.648;24.568;2023-09-30T05:07:49;86327.00;;;12.71;65.20
41312;BME280;27061;41.648;24.568;2023-09-30T05:10:16;86362.75;;;12.99;65.37
41312;BME280;27061;41.648;24.568;2023-09-30T05:12:44;86366.28;;;12.94;65.92
41312;BME280;27061;41.648;24.568;2023-09-30T05:15:16;86357.16;;;13.01;65.72
41312;BME280;27061;41.648;24.568;2023-09-30T05:17:45;86317.22;;;12.74;66.31
41312;BME280;27061;41.648;24.568;2023-09-30T05:20:14;86365.28;;;13.17;65.59
41312;BME280;27061;41.648;24.568;2023-09-30T05:22:44;86363.22;;;13.16;64.39
41312;BME280;27061;41.648;24.568;2023-09-30T05:25:14;86323.19;;;12.95;63.91
41312;BME280;27061;41.648;24.568;2023-09-30T05:27:44;86356.97;;;13.15;63.88
41312;BME280;27061;41.648;24.568;2023-09-30T05:30:12;86347.22;;;13.18;63.90
41312;BME280;27061;41.648;24.568;2023-09-30T05:32:42;86316.88;;;13.00;63.82
41312;BME280;27061;41.648;24.568;2023-09-30T05:35:10;86363.53;;;13.45;63.91
41312;BME280;27061;41.648;24.568;2023-09-30T05:37:41;86252.84;;;12.59;64.81
41312;BME280;27061;41.648;24.568;2023-09-30T05:40:09;86359.22;;;13.54;65.43
41312;BME280;27061;41.648;24.568;2023-09-30T05:42:56;86354.97;;;13.59;63.85
41312;BME280;27061;41.648;24.568;2023-09-30T05:45:30;86317.72;;;13.40;62.74
41312;BME280;27061;41.648;24.568;2023-09-30T05:47:57;86353.34;;;13.74;61.96
41312;BME280;27061;41.648;24.568;2023-09-30T05:50:29;86316.13;;;13.53;61.98
41312;BME280;27061;41.648;24.568;2023-09-30T05:52:57;86389.22;;;13.92;58.30
41312;BME280;27061;41.648;24.568;2023-09-30T05:55:24;86386.31;;;14.01;59.15
41312;BME280;27061;41.648;24.568;2023-09-30T05:57:53;86382.66;;;14.10;58.89
41312;BME280;27061;41.648;24.568;2023-09-30T06:00:22;86387.34;;;14.22;58.23
41312;BME280;27061;41.648;24.568;2023-09-30T06:03:01;86388.53;;;14.35;59.56
41312;BME280;27061;41.648;24.568;2023-09-30T06:05:31;86379.25;;;14.49;58.97
41312;BME280;27061;41.648;24.568;2023-09-30T06:08:01;86350.44;;;14.23;54.88
41312;BME280;27061;41.648;24.568;2023-09-30T06:10:30;86350.91;;;14.36;55.31
41312;BME280;27061;41.648;24.568;2023-09-30T06:12:58;86345.25;;;14.42;53.88
41312;BME280;27061;41.648;24.568;2023-09-30T06:15:26;86389.16;;;14.79;55.51
41312;BME280;27061;41.648;24.568;2023-09-30T06:17:57;86332.84;;;14.33;56.95
41312;BME280;27061;41.648;24.568;2023-09-30T06:20:27;86391.59;;;14.97;56.46
41312;BME280;27061;41.648;24.568;2023-09-30T06:22:57;86391.50;;;15.01;54.96
41312;BME280;27061;41.648;24.568;2023-09-30T06:25:25;86388.06;;;14.98;55.78
41312;BME280;27061;41.648;24.568;2023-09-30T06:27:53;86391.97;;;15.14;53.30
41312;BME280;27061;41.648;24.568;2023-09-30T06:30:27;86347.06;;;14.93;52.95
41312;BME280;27061;41.648;24.568;2023-09-30T06:32:59;86404.84;;;15.31;53.55
41312;BME280;27061;41.648;24.568;2023-09-30T06:35:28;86391.63;;;15.30;55.55
41312;BME280;27061;41.648;24.568;2023-09-30T06:37:57;86362.75;;;15.11;55.23
41312;BME280;27061;41.648;24.568;2023-09-30T06:40:24;86347.75;;;15.26;50.31
41312;BME280;27061;41.648;24.568;2023-09-30T06:42:52;86386.53;;;15.41;53.37
41312;BME280;27061;41.648;24.568;2023-09-30T06:45:24;86349.28;;;15.21;54.75
41312;BME280;27061;41.648;24.568;2023-09-30T06:47:53;86396.28;;;15.74;51.44
41312;BME280;27061;41.648;24.568;2023-09-30T06:50:21;86399.81;;;15.73;53.04
41312;BME280;27061;41.648;24.568;2023-09-30T06:52:49;86369.56;;;15.51;53.88
41312;BME280;27061;41.648;24.568;2023-09-30T06:55:17;86396.97;;;15.75;55.30
41312;BME280;27061;41.648;24.568;2023-09-30T06:57:44;86390.00;;;15.74;53.23
41312;BME280;27061;41.648;24.568;2023-09-30T07:00:13;86413.91;;;15.98;54.44
41312;BME280;27061;41.648;24.568;2023-09-30T07:02:41;86411.50;;;16.10;51.93
41312;BME280;27061;41.648;24.568;2023-09-30T07:05:10;86383.97;;;15.94;54.19
41312;BME280;27061;41.648;24.568;2023-09-30T07:07:39;86413.97;;;16.25;54.10
41312;BME280;27061;41.648;24.568;2023-09-30T07:10:07;86407.63;;;16.28;55.26
41312;BME280;27061;41.648;24.568;2023-09-30T07:12:35;86412.03;;;16.48;55.42
41312;BME280;27061;41.648;24.568;2023-09-30T07:15:04;86400.16;;;16.47;52.87
41312;BME280;27061;41.648;24.568;2023-09-30T07:17:32;86401.53;;;16.48;53.63
41312;BME280;27061;41.648;24.568;2023-09-30T07:20:02;86401.81;;;16.65;52.68
41312;BME280;27061;41.648;24.568;2023-09-30T07:22:30;86411.72;;;16.89;53.02
41312;BME280;27061;41.648;24.568;2023-09-30T07:25:00;86418.47;;;16.98;54.00
41312;BME280;27061;41.648;24.568;2023-09-30T07:27:28;86414.66;;;17.10;50.51
41312;BME280;27061;41.648;24.568;2023-09-30T07:29:55;86408.00;;;16.97;51.70
41312;BME280;27061;41.648;24.568;2023-09-30T07:32:23;86399.75;;;16.93;51.83
41312;BME280;27061;41.648;24.568;2023-09-30T07:34:51;86359.63;;;16.75;51.58
41312;BME280;27061;41.648;24.568;2023-09-30T07:37:19;86357.38;;;16.82;50.94
41312;BME280;27061;41.648;24.568;2023-09-30T07:39:47;86424.94;;;17.44;50.21
41312;BME280;27061;41.648;24.568;2023-09-30T07:42:17;86431.66;;;17.53;50.42
41312;BME280;27061;41.648;24.568;2023-09-30T07:44:45;86382.69;;;17.28;50.93
41312;BME280;27061;41.648;24.568;2023-09-30T07:47:12;86426.72;;;17.81;48.61
41312;BME280;27061;41.648;24.568;2023-09-30T07:49:39;86344.34;;;17.24;48.84
41312;BME280;27061;41.648;24.568;2023-09-30T07:52:07;86411.13;;;17.88;49.88
41312;BME280;27061;41.648;24.568;2023-09-30T07:54:34;86425.94;;;18.07;46.75
41312;BME280;27061;41.648;24.568;2023-09-30T07:57:01;86424.38;;;18.12;49.05
41312;BME280;27061;41.648;24.568;2023-09-30T07:59:28;86400.72;;;18.07;47.31
41312;BME280;27061;41.648;24.568;2023-09-30T08:01:56;86388.16;;;18.06;46.82
41312;BME280;27061;41.648;24.568;2023-09-30T08:04:24;86393.66;;;18.10;46.52
41312;BME280;27061;41.648;24.568;2023-09-30T08:06:52;86412.13;;;18.24;48.13
41312;BME280;27061;41.648;24.568;2023-09-30T08:09:20;86420.97;;;18.33;49.17
41312;BME280;27061;41.648;24.568;2023-09-30T08:11:58;86384.22;;;17.97;43.75
41312;BME280;27061;41.648;24.568;2023-09-30T08:14:25;86349.50;;;17.88;45.31
41312;BME280;27061;41.648;24.568;2023-09-30T08:16:53;86354.59;;;18.04;47.54
41312;BME280;27061;41.648;24.568;2023-09-30T08:19:20;86411.63;;;18.63;44.54
41312;BME280;27061;41.648;24.568;2023-09-30T08:21:48;86396.19;;;18.64;47.00
41312;BME280;27061;41.648;24.568;2023-09-30T08:24:16;86419.34;;;18.85;46.18
41312;BME280;27061;41.648;24.568;2023-09-30T08:26:44;86414.75;;;18.96;47.36
41312;BME280;27061;41.648;24.568;2023-09-30T08:29:12;86404.69;;;19.04;46.65
41312;BME280;27061;41.648;24.568;2023-09-30T08:31:39;86408.31;;;19.21;44.01
41312;BME280;27061;41.648;24.568;2023-09-30T08:34:06;86419.06;;;19.35;45.09
41312;BME280;27061;41.648;24.568;2023-09-30T08:36:34;86414.66;;;19.40;45.84
41312;BME280;27061;41.648;24.568;2023-09-30T08:39:01;86380.19;;;19.23;45.00
41312;BME280;27061;41.648;24.568;2023-09-30T08:41:31;86420.84;;;19.65;45.83
41312;BME280;27061;41.648;24.568;2023-09-30T08:44:03;86425.84;;;19.82;43.35
41312;BME280;27061;41.648;24.568;2023-09-30T08:46:32;86416.69;;;19.83;45.10
41312;BME280;27061;41.648;24.568;2023-09-30T08:49:03;86419.13;;;19.93;43.04
41312;BME280;27061;41.648;24.568;2023-09-30T08:51:31;86406.00;;;19.88;43.96
41312;BME280;27061;41.648;24.568;2023-09-30T08:54:00;86417.16;;;20.08;44.02
41312;BME280;27061;41.648;24.568;2023-09-30T08:56:31;86410.84;;;20.08;43.79
41312;BME280;27061;41.648;24.568;2023-09-30T08:59:02;86420.13;;;20.23;43.96
41312;BME280;27061;41.648;24.568;2023-09-30T09:01:31;86421.19;;;20.32;41.84
41312;BME280;27061;41.648;24.568;2023-09-30T09:03:59;86266.69;;;19.18;43.00
41312;BME280;27061;41.648;24.568;2023-09-30T09:06:26;86397.88;;;20.17;42.14
41312;BME280;27061;41.648;24.568;2023-09-30T09:09:12;86354.13;;;19.85;42.42
41312;BME280;27061;41.648;24.568;2023-09-30T09:11:40;86433.66;;;20.56;42.83
41312;BME280;27061;41.648;24.568;2023-09-30T09:14:07;86408.50;;;20.52;41.99
41312;BME280;27061;41.648;24.568;2023-09-30T09:16:36;86419.31;;;20.81;41.48
41312;BME280;27061;41.648;24.568;2023-09-30T09:19:13;86423.34;;;20.86;41.40
41312;BME280;27061;41.648;24.568;2023-09-30T09:22:01;86417.31;;;20.96;41.57
41312;BME280;27061;41.648;24.568;2023-09-30T09:24:33;86400.94;;;20.84;41.83
41312;BME280;27061;41.648;24.568;2023-09-30T09:27:12;86416.16;;;21.08;40.39
41312;BME280;27061;41.648;24.568;2023-09-30T09:29:39;86412.56;;;21.09;39.49
41312;BME280;27061;41.648;24.568;2023-09-30T09:32:14;86386.59;;;20.90;39.66
41312;BME280;27061;41.648;24.568;2023-09-30T09:35:01;86406.84;;;21.11;39.68
41312;BME280;27061;41.648;24.568;2023-09-30T09:37:31;86412.84;;;21.20;39.38
41312;BME280;27061;41.648;24.568;2023-09-30T09:39:59;86412.16;;;21.19;39.17
41312;BME280;27061;41.648;24.568;2023-09-30T09:42:31;86412.00;;;21.24;38.05
41312;BME280;27061;41.648;24.568;2023-09-30T09:45:04;86400.66;;;21.26;36.70
41312;BME280;27061;41.648;24.568;2023-09-30T09:47:35;86382.88;;;20.96;37.73
41312;BME280;27061;41.648;24.568;2023-09-30T09:50:04;86369.91;;;20.86;38.87
41312;BME280;27061;41.648;24.568;2023-09-30T09:52:34;86228.72;;;19.94;37.26
41312;BME280;27061;41.648;24.568;2023-09-30T09:55:02;86395.19;;;21.22;39.31
41312;BME280;27061;41.648;24.568;2023-09-30T09:57:31;86337.66;;;20.83;40.48
41312;BME280;27061;41.648;24.568;2023-09-30T09:59:59;86394.19;;;21.29;38.30
41312;BME280;27061;41.648;24.568;2023-09-30T10:02:30;86363.25;;;21.10;37.43
41312;BME280;27061;41.648;24.568;2023-09-30T10:04:59;86396.31;;;21.29;37.58
41312;BME280;27061;41.648;24.568;2023-09-30T10:07:33;86376.78;;;21.25;38.38
41312;BME280;27061;41.648;24.568;2023-09-30T10:10:08;86404.00;;;21.47;38.68
41312;BME280;27061;41.648;24.568;2023-09-30T10:12:36;86330.84;;;21.11;37.25
41312;BME280;27061;41.648;24.568;2023-09-30T10:15:38;86387.00;;;21.66;36.58
41312;BME280;27061;41.648;24.568;2023-09-30T10:18:10;86342.63;;;21.33;37.17
41312;BME280;27061;41.648;24.568;2023-09-30T10:20:42;86394.41;;;21.73;36.02
41312;BME280;27061;41.648;24.568;2023-09-30T10:23:20;86393.47;;;21.79;35.28
41312;BME280;27061;41.648;24.568;2023-09-30T10:25:49;86384.25;;;21.80;36.64
41312;BME280;27061;41.648;24.568;2023-09-30T10:38:56;86382.84;;;21.96;35.36
41312;BME280;27061;41.648;24.568;2023-09-30T10:46:59;86324.59;;;21.59;36.25
41312;BME280;27061;41.648;24.568;2023-09-30T10:49:30;86340.53;;;21.81;36.04
41312;BME280;27061;41.648;24.568;2023-09-30T10:52:02;86311.88;;;21.60;36.16
41312;BME280;27061;41.648;24.568;2023-09-30T10:54:32;86373.28;;;22.06;36.13
41312;BME280;27061;41.648;24.568;2023-09-30T10:57:00;86363.66;;;22.01;35.47
41312;BME280;27061;41.648;24.568;2023-09-30T10:59:28;86366.00;;;22.11;37.22
41312;BME280;27061;41.648;24.568;2023-09-30T11:01:59;86372.03;;;22.17;35.16
41312;BME280;27061;41.648;24.568;2023-09-30T11:04:26;86339.03;;;21.99;35.17
41312;BME280;27061;41.648;24.568;2023-09-30T11:06:58;86302.53;;;21.80;34.68
41312;BME280;27061;41.648;24.568;2023-09-30T11:09:27;86354.28;;;22.21;34.51
41312;BME280;27061;41.648;24.568;2023-09-30T11:11:55;86362.34;;;22.29;35.39
41312;BME280;27061;41.648;24.568;2023-09-30T11:14:25;86367.03;;;22.35;36.42
41312;BME280;27061;41.648;24.568;2023-09-30T11:17:02;86355.09;;;22.34;35.23
41312;BME280;27061;41.648;24.568;2023-09-30T11:19:35;86333.19;;;22.35;35.14
41312;BME280;27061;41.648;24.568;2023-09-30T11:22:04;86355.00;;;22.51;34.46
41312;BME280;27061;41.648;24.568;2023-09-30T11:24:35;86355.31;;;22.59;34.29
41312;BME280;27061;41.648;24.568;2023-09-30T11:27:03;86362.59;;;22.69;34.13
41312;BME280;27061;41.648;24.568;2023-09-30T11:29:31;86357.47;;;22.74;34.06
41312;BME280;27061;41.648;24.568;2023-09-30T11:31:59;86325.44;;;22.64;34.56
41312;BME280;27061;41.648;24.568;2023-09-30T11:34:34;86349.69;;;22.89;35.43
41312;BME280;27061;41.648;24.568;2023-09-30T11:37:01;86285.75;;;22.54;34.54
41312;BME280;27061;41.648;24.568;2023-09-30T11:39:30;86357.28;;;23.07;35.38
41312;BME280;27061;41.648;24.568;2023-09-30T11:41:58;86326.81;;;22.80;33.83
41312;BME280;27061;41.648;24.568;2023-09-30T11:44:27;86345.31;;;23.07;33.67
41312;BME280;27061;41.648;24.568;2023-09-30T11:47:04;86352.78;;;23.12;33.37
41312;BME280;27061;41.648;24.568;2023-09-30T11:49:37;86347.63;;;23.17;33.16
41312;BME280;27061;41.648;24.568;2023-09-30T11:52:10;86287.97;;;22.51;32.92
41312;BME280;27061;41.648;24.568;2023-09-30T11:54:42;86291.19;;;22.58;33.31
41312;BME280;27061;41.648;24.568;2023-09-30T11:57:14;86345.22;;;23.09;33.06
41312;BME280;27061;41.648;24.568;2023-09-30T11:59:43;86210.63;;;22.17;33.38
41312;BME280;27061;41.648;24.568;2023-09-30T12:02:13;86342.09;;;23.15;32.00
41312;BME280;27061;41.648;24.568;2023-09-30T12:04:46;86333.53;;;23.02;33.56
41312;BME280;27061;41.648;24.568;2023-09-30T12:07:16;86340.25;;;23.09;32.66
41312;BME280;27061;41.648;24.568;2023-09-30T12:09:43;86191.69;;;22.01;33.61
41312;BME280;27061;41.648;24.568;2023-09-30T12:12:11;86218.16;;;22.22;33.17
41312;BME280;27061;41.648;24.568;2023-09-30T12:14:39;86277.06;;;22.73;33.23
41312;BME280;27061;41.648;24.568;2023-09-30T12:17:07;86337.03;;;23.17;33.48
41312;BME280;27061;41.648;24.568;2023-09-30T12:19:40;86285.16;;;22.81;33.19
41312;BME280;27061;41.648;24.568;2023-09-30T12:22:09;86332.34;;;23.12;32.83
41312;BME280;27061;41.648;24.568;2023-09-30T12:24:37;86315.03;;;23.05;33.83
41312;BME280;27061;41.648;24.568;2023-09-30T12:27:07;86313.66;;;23.04;33.46
41312;BME280;27061;41.648;24.568;2023-09-30T12:29:34;86293.13;;;22.91;33.94
41312;BME280;27061;41.648;24.568;2023-09-30T12:32:01;86320.09;;;23.17;33.12
41312;BME280;27061;41.648;24.568;2023-09-30T12:34:32;86288.19;;;22.77;32.24
41312;BME280;27061;41.648;24.568;2023-09-30T12:37:00;86261.44;;;22.76;32.31
41312;BME280;27061;41.648;24.568;2023-09-30T12:39:27;86314.84;;;23.09;32.79
41312;BME280;27061;41.648;24.568;2023-09-30T12:41:58;86310.53;;;23.10;32.40
41312;BME280;27061;41.648;24.568;2023-09-30T12:44:26;86286.72;;;22.92;32.23
41312;BME280;27061;41.648;24.568;2023-09-30T12:46:53;86285.25;;;23.08;33.36
41312;BME280;27061;41.648;24.568;2023-09-30T12:49:21;86299.81;;;23.27;32.50
41312;BME280;27061;41.648;24.568;2023-09-30T12:51:49;86301.09;;;23.16;32.93
41312;BME280;27061;41.648;24.568;2023-09-30T12:54:17;86299.31;;;23.23;33.10
41312;BME280;27061;41.648;24.568;2023-09-30T12:56:45;86305.44;;;23.27;32.35
41312;BME280;27061;41.648;24.568;2023-09-30T12:59:14;86302.13;;;23.38;33.41
41312;BME280;27061;41.648;24.568;2023-09-30T13:01:43;86276.81;;;23.21;33.59
41312;BME280;27061;41.648;24.568;2023-09-30T13:04:11;86297.72;;;23.41;33.82
41312;BME280;27061;41.648;24.568;2023-09-30T13:06:38;86296.38;;;23.40;33.27
41312;BME280;27061;41.648;24.568;2023-09-30T13:09:07;86292.03;;;23.55;34.04
41312;BME280;27061;41.648;24.568;2023-09-30T13:11:36;86294.28;;;23.53;32.50
41312;BME280;27061;41.648;24.568;2023-09-30T13:14:04;86269.56;;;23.39;32.99
41312;BME280;27061;41.648;24.568;2023-09-30T13:16:31;86277.63;;;23.61;32.96